createdAt,value
2018-07-12T00:00:42.020Z,10.13
2018-07-12T00:03:09.603Z,11.53
2018-07-12T00:05:37.156Z,11.67
2018-07-12T00:08:04.736Z,9.33
2018-07-12T00:10:32.308Z,8.73
2018-07-12T00:12:59.891Z,12.80
2018-07-12T00:15:27.506Z,9.67
2018-07-12T00:17:55.096Z,15.10
2018-07-12T00:20:22.670Z,10.83
2018-07-12T00:22:50.243Z,12.80
2018-07-12T00:25:17.880Z,13.30
2018-07-12T00:27:45.448Z,11.57
2018-07-12T00:30:13.033Z,11.97
2018-07-12T00:32:40.704Z,12.27
2018-07-12T00:35:08.305Z,10.23
2018-07-12T00:37:36.193Z,13.40
2018-07-12T00:40:03.853Z,14.83
2018-07-12T00:42:31.425Z,14.03
2018-07-12T00:44:59.043Z,11.23
2018-07-12T00:47:26.920Z,13.00
2018-07-12T00:49:54.496Z,12.20
2018-07-12T00:52:22.712Z,13.10
2018-07-12T00:54:50.300Z,12.03
2018-07-12T00:57:17.864Z,11.63
2018-07-12T00:59:45.441Z,11.33
2018-07-12T01:02:13.068Z,12.23
2018-07-12T01:04:41.209Z,10.67
2018-07-12T01:07:08.780Z,12.17
2018-07-12T01:09:36.413Z,9.87
2018-07-12T01:12:03.974Z,9.20
2018-07-12T01:14:31.529Z,11.90
2018-07-12T01:16:59.212Z,17.13
2018-07-12T01:19:27.196Z,16.53
2018-07-12T01:21:55.189Z,10.97
2018-07-12T01:24:22.964Z,11.20
2018-07-12T01:26:50.544Z,16.43
2018-07-12T01:29:18.111Z,14.73
2018-07-12T01:31:45.708Z,14.77
2018-07-12T01:34:14.020Z,14.93
2018-07-12T01:36:41.848Z,17.40
2018-07-12T01:39:09.421Z,17.73
2018-07-12T01:41:37.017Z,19.00
2018-07-12T01:44:04.593Z,18.07
2018-07-12T01:46:32.192Z,16.53
2018-07-12T01:48:59.980Z,16.40
2018-07-12T01:51:27.692Z,17.10
2018-07-12T01:53:55.581Z,17.80
2018-07-12T01:56:23.156Z,21.40
2018-07-12T01:58:50.746Z,18.80
2018-07-12T02:01:18.329Z,19.20
2018-07-12T02:03:46.009Z,19.50
2018-07-12T02:06:13.585Z,21.37
2018-07-12T02:08:41.715Z,23.63
2018-07-12T02:11:09.298Z,21.03
2018-07-12T02:13:36.884Z,21.60
2018-07-12T02:16:04.456Z,21.23
2018-07-12T02:18:32.044Z,19.20
2018-07-12T02:20:59.617Z,20.43
2018-07-12T02:23:27.320Z,18.17
2018-07-12T02:25:54.896Z,20.30
2018-07-12T02:28:22.609Z,19.43
2018-07-12T02:30:50.177Z,19.57
2018-07-12T02:33:17.781Z,22.17
2018-07-12T02:35:45.638Z,18.83
2018-07-12T02:38:13.579Z,20.70
2018-07-12T02:40:41.166Z,18.97
2018-07-12T02:43:08.732Z,18.50
2018-07-12T02:45:36.317Z,18.80
2018-07-12T02:48:03.885Z,23.23
2018-07-12T02:50:31.489Z,19.00
2018-07-12T02:52:59.076Z,19.60
2018-07-12T02:55:26.664Z,22.03
2018-07-12T02:57:54.241Z,21.40
2018-07-12T03:00:21.832Z,20.80
2018-07-12T03:02:49.400Z,19.13
2018-07-12T03:05:17.010Z,21.00
2018-07-12T03:07:44.580Z,21.73
2018-07-12T03:10:12.180Z,23.00
2018-07-12T03:12:39.747Z,23.10
2018-07-12T03:15:07.345Z,21.70
2018-07-12T03:17:34.921Z,23.00
2018-07-12T03:20:02.492Z,25.93
2018-07-12T03:22:30.092Z,25.63
2018-07-12T03:24:57.856Z,26.80
2018-07-12T03:27:25.444Z,25.17
2018-07-12T03:29:53.032Z,28.00
2018-07-12T03:32:20.620Z,42.27
2018-07-12T03:34:48.189Z,26.30
2018-07-12T03:37:16.323Z,29.00
2018-07-12T03:39:44.038Z,33.20
2018-07-12T03:42:12.412Z,23.30
2018-07-12T03:44:40.000Z,27.00
2018-07-12T03:47:07.593Z,29.50
2018-07-12T03:49:35.172Z,27.07
2018-07-12T03:52:02.845Z,28.30
2018-07-12T03:54:30.412Z,32.00
2018-07-12T03:56:58.288Z,30.60
2018-07-12T03:59:26.021Z,27.23
2018-07-12T04:01:53.613Z,30.57
2018-07-12T04:04:21.184Z,30.07
2018-07-12T04:06:49.028Z,28.60
2018-07-12T04:09:16.596Z,30.53
2018-07-12T04:11:44.160Z,29.80
2018-07-12T04:14:11.746Z,28.47
2018-07-12T04:16:39.325Z,23.43
2018-07-12T04:19:07.444Z,27.23
2018-07-12T04:21:35.057Z,19.57
2018-07-12T04:24:02.650Z,15.47
2018-07-12T04:26:30.217Z,16.73
2018-07-12T04:28:58.378Z,13.60
2018-07-12T04:31:25.953Z,12.47
2018-07-12T04:33:53.692Z,13.33
2018-07-12T04:36:21.380Z,10.70
2018-07-12T04:38:49.017Z,14.03
2018-07-12T04:41:16.577Z,17.30
2018-07-12T04:43:44.679Z,12.83
2018-07-12T04:46:12.566Z,14.07
2018-07-12T04:48:40.562Z,15.13
2018-07-12T04:51:08.803Z,14.77
2018-07-12T04:53:36.600Z,15.20
2018-07-12T04:56:04.176Z,13.70
2018-07-12T04:58:31.830Z,14.03
2018-07-12T05:00:59.382Z,12.73
2018-07-12T05:03:26.957Z,16.23
2018-07-12T05:05:54.732Z,14.93
2018-07-12T05:08:22.304Z,19.97
2018-07-12T05:10:50.013Z,16.83
2018-07-12T05:13:17.577Z,17.07
2018-07-12T05:15:45.172Z,16.63
2018-07-12T05:18:12.748Z,15.17
2018-07-12T05:20:41.032Z,16.83
2018-07-12T05:23:08.606Z,17.87
2018-07-12T05:25:36.195Z,17.70
2018-07-12T05:28:03.768Z,18.70
2018-07-12T05:30:31.356Z,14.47
2018-07-12T05:32:58.922Z,17.53
2018-07-12T05:35:28.008Z,19.67
2018-07-12T05:37:56.122Z,17.17
2018-07-12T05:40:24.264Z,20.23
2018-07-12T05:42:52.368Z,16.23
2018-07-12T05:45:21.065Z,15.40
2018-07-12T05:47:49.240Z,13.27
2018-07-12T05:50:17.793Z,15.53
2018-07-12T05:52:46.072Z,16.85
2018-07-12T05:55:14.204Z,14.27
2018-07-12T05:57:42.292Z,15.53
2018-07-12T06:00:10.397Z,12.53
2018-07-12T06:02:38.488Z,13.27
2018-07-12T06:05:06.633Z,14.77
2018-07-12T06:07:35.571Z,15.27
2018-07-12T06:10:03.705Z,16.70
2018-07-12T06:12:31.819Z,15.17
2018-07-12T06:14:59.968Z,19.97
2018-07-12T06:17:28.456Z,17.03
2018-07-12T06:19:56.857Z,15.90
2018-07-12T06:22:24.984Z,13.20
2018-07-12T06:24:53.089Z,16.53
2018-07-12T06:27:22.173Z,13.40
2018-07-12T06:29:50.327Z,13.50
2018-07-12T06:32:18.480Z,14.40
2018-07-12T06:34:46.584Z,17.50
2018-07-12T06:37:15.099Z,13.70
2018-07-12T06:39:43.436Z,17.60
2018-07-12T06:42:11.572Z,12.77
2018-07-12T06:44:39.664Z,14.13
2018-07-12T06:47:08.007Z,12.13
2018-07-12T06:49:36.779Z,13.93
2018-07-12T06:52:05.141Z,10.37
2018-07-12T06:54:33.240Z,12.73
2018-07-12T06:57:01.388Z,10.00
2018-07-12T06:59:29.484Z,13.97
2018-07-12T07:01:57.988Z,13.63
2018-07-12T07:04:26.182Z,16.40
2018-07-12T07:06:54.776Z,7.73
2018-07-12T07:09:23.292Z,5.10
2018-07-12T07:11:51.869Z,6.83
2018-07-12T07:14:20.051Z,7.60
2018-07-12T07:16:48.132Z,8.17
2018-07-12T07:19:16.455Z,5.67
2018-07-12T07:21:44.567Z,5.50
2018-07-12T07:24:12.698Z,5.00
2018-07-12T07:26:40.794Z,4.37
2018-07-12T07:29:08.904Z,4.73
2018-07-12T07:31:37.028Z,6.37
2018-07-12T07:34:05.369Z,6.33
2018-07-12T07:36:33.475Z,7.13
2018-07-12T07:39:01.596Z,6.90
2018-07-12T07:41:29.688Z,5.67
2018-07-12T07:43:58.103Z,7.17
2018-07-12T07:46:26.668Z,6.00
2018-07-12T07:48:54.788Z,5.47
2018-07-12T07:51:22.980Z,6.83
2018-07-12T07:53:51.308Z,8.10
2018-07-12T07:56:19.512Z,5.70
2018-07-12T07:58:47.603Z,7.53
2018-07-12T08:01:15.780Z,7.20
2018-07-12T08:03:43.961Z,8.00
2018-07-12T08:06:12.207Z,7.20
2018-07-12T08:08:40.304Z,8.60
2018-07-12T08:11:08.419Z,6.47
2018-07-12T08:13:36.512Z,8.40
2018-07-12T08:16:04.640Z,5.80
2018-07-12T08:18:32.893Z,8.73
2018-07-12T08:21:01.085Z,5.50
2018-07-12T08:23:29.650Z,6.97
2018-07-12T08:25:57.772Z,6.40
2018-07-12T08:28:27.120Z,6.80
2018-07-12T08:30:55.914Z,6.27
2018-07-12T08:33:24.360Z,11.60
2018-07-12T08:35:52.444Z,5.17
2018-07-12T08:38:20.616Z,5.50
2018-07-12T08:40:48.756Z,4.27
2018-07-12T08:43:16.925Z,4.40
2018-07-12T08:45:45.645Z,4.97
2018-07-12T08:48:13.972Z,4.60
2018-07-12T08:50:42.312Z,7.00
2018-07-12T08:53:10.489Z,7.63
2018-07-12T08:55:38.564Z,11.97
2018-07-12T08:58:06.727Z,5.37
2018-07-12T09:00:34.916Z,12.27
2018-07-12T09:03:03.188Z,6.20
2018-07-12T09:05:31.297Z,6.30
2018-07-12T09:07:59.412Z,10.43
2018-07-12T09:10:27.525Z,6.40
2018-07-12T09:12:55.664Z,7.33
2018-07-12T09:15:23.764Z,4.43
2018-07-12T09:17:51.917Z,7.10
2018-07-12T09:20:20.020Z,5.73
2018-07-12T09:22:48.226Z,5.67
2018-07-12T09:25:16.417Z,4.80
2018-07-12T09:27:44.597Z,6.67
2018-07-12T09:30:12.688Z,5.57
2018-07-12T09:32:40.926Z,5.60
2018-07-12T09:35:09.146Z,5.43
2018-07-12T09:37:37.500Z,9.63
2018-07-12T09:40:05.661Z,4.60
2018-07-12T09:42:33.757Z,7.93
2018-07-12T09:45:01.884Z,4.97
2018-07-12T09:47:30.184Z,6.20
2018-07-12T09:49:58.275Z,5.40
2018-07-12T09:52:31.477Z,7.67
2018-07-12T09:54:59.672Z,7.10
2018-07-12T09:57:33.244Z,5.30
2018-07-12T10:00:01.449Z,5.97
2018-07-12T10:02:34.824Z,8.73
2018-07-12T10:05:02.969Z,7.23
2018-07-12T10:07:35.376Z,7.13
2018-07-12T10:10:03.728Z,4.60
2018-07-12T10:12:37.063Z,7.43
2018-07-12T10:15:09.884Z,5.10
2018-07-12T10:17:48.320Z,8.37
2018-07-12T10:20:16.436Z,6.10
2018-07-12T10:22:44.660Z,6.37
2018-07-12T10:25:12.824Z,5.80
2018-07-12T10:27:40.918Z,7.37
2018-07-12T10:30:09.012Z,6.37
2018-07-12T10:32:37.204Z,9.30
2018-07-12T10:35:05.390Z,6.50
2018-07-12T10:37:33.536Z,4.60
2018-07-12T10:40:01.645Z,5.50
2018-07-12T10:42:29.760Z,5.67
2018-07-12T10:44:57.849Z,5.23
2018-07-12T10:47:25.988Z,11.03
2018-07-12T10:49:54.084Z,4.90
2018-07-12T10:52:22.192Z,7.90
2018-07-12T10:54:50.296Z,6.40
2018-07-12T10:57:18.430Z,5.30
2018-07-12T10:59:46.532Z,5.23
2018-07-12T11:02:14.695Z,5.93
2018-07-12T11:04:42.792Z,6.10
2018-07-12T11:07:10.922Z,11.03
2018-07-12T11:09:39.865Z,5.33
2018-07-12T11:12:07.972Z,5.57
2018-07-12T11:14:36.057Z,5.40
2018-07-12T11:17:04.164Z,9.00
2018-07-12T11:19:32.248Z,5.57
2018-07-12T11:22:00.492Z,8.17
2018-07-12T11:24:28.601Z,8.93
2018-07-12T11:26:56.717Z,5.50
2018-07-12T11:29:30.172Z,6.00
2018-07-12T11:31:58.291Z,6.00
2018-07-12T11:34:26.392Z,10.30
2018-07-12T11:36:54.563Z,6.50
2018-07-12T11:39:22.775Z,8.13
2018-07-12T11:41:51.144Z,9.73
2018-07-12T11:44:19.247Z,5.73
2018-07-12T11:46:47.348Z,6.00
2018-07-12T11:49:15.456Z,6.27
2018-07-12T11:51:43.557Z,12.80
2018-07-12T11:54:11.665Z,7.83
2018-07-12T11:56:39.755Z,6.70
2018-07-12T11:59:07.893Z,7.30
2018-07-12T12:01:35.998Z,7.77
2018-07-12T12:04:04.116Z,5.77
2018-07-12T12:06:32.233Z,5.70
2018-07-12T12:09:00.578Z,6.77
2018-07-12T12:11:28.692Z,7.63
2018-07-12T12:13:56.810Z,6.60
2018-07-12T12:16:24.924Z,5.90
2018-07-12T12:18:53.040Z,8.17
2018-07-12T12:21:21.135Z,8.03
2018-07-12T12:23:49.248Z,9.37
2018-07-12T12:26:17.344Z,9.00
2018-07-12T12:28:45.437Z,6.30
2018-07-12T12:31:13.560Z,11.63
2018-07-12T12:33:41.740Z,6.50
2018-07-12T12:36:09.900Z,7.60
2018-07-12T12:38:38.054Z,7.03
2018-07-12T12:41:06.200Z,7.33
2018-07-12T12:43:34.292Z,6.30
2018-07-12T12:46:02.405Z,8.53
2018-07-12T12:48:30.498Z,6.67
2018-07-12T12:50:58.652Z,9.43
2018-07-12T12:53:26.752Z,8.83
2018-07-12T12:55:54.888Z,9.53
2018-07-12T12:58:22.992Z,6.77
2018-07-12T13:00:51.120Z,7.90
2018-07-12T13:03:19.216Z,6.97
2018-07-12T13:05:47.321Z,8.10
2018-07-12T13:08:15.433Z,9.20
2018-07-12T13:10:43.537Z,6.80
2018-07-12T13:13:11.709Z,6.73
2018-07-12T13:15:39.796Z,5.43
2018-07-12T13:18:07.915Z,5.20
2018-07-12T13:20:36.012Z,5.10
2018-07-12T13:23:04.161Z,5.23
2018-07-12T13:25:32.313Z,5.90
2018-07-12T13:28:00.450Z,5.30
2018-07-12T13:30:28.534Z,6.50
2018-07-12T13:32:56.692Z,7.03
2018-07-12T13:35:25.117Z,8.07
2018-07-12T13:37:53.261Z,4.57
2018-07-12T13:40:21.352Z,5.60
2018-07-12T13:42:49.514Z,5.80
2018-07-12T13:45:17.682Z,5.00
2018-07-12T13:47:45.804Z,6.00
2018-07-12T13:50:13.920Z,6.57
2018-07-12T13:52:42.029Z,4.43
2018-07-12T13:55:10.152Z,4.60
2018-07-12T13:57:38.264Z,4.20
2018-07-12T14:00:06.400Z,4.97
2018-07-12T14:02:34.532Z,5.93
2018-07-12T14:05:02.734Z,6.27
2018-07-12T14:07:30.788Z,5.50
2018-07-12T14:09:58.910Z,4.53
2018-07-12T14:12:27.029Z,5.23
2018-07-12T14:14:55.149Z,7.70
2018-07-12T14:17:23.236Z,5.57
2018-07-12T14:19:51.351Z,6.60
2018-07-12T14:22:19.444Z,5.93
2018-07-12T14:24:47.607Z,5.00
2018-07-12T14:27:15.729Z,5.30
2018-07-12T14:29:43.861Z,6.83
2018-07-12T14:32:11.969Z,5.50
2018-07-12T14:34:40.089Z,6.23
2018-07-12T14:37:08.204Z,7.30
2018-07-12T14:39:36.349Z,6.23
2018-07-12T14:42:04.502Z,5.47
2018-07-12T14:44:32.837Z,7.40
2018-07-12T14:47:01.006Z,6.07
2018-07-12T14:49:29.056Z,4.80
2018-07-12T14:51:57.192Z,6.40
2018-07-12T14:54:25.363Z,5.27
2018-07-12T14:56:53.440Z,7.93
2018-07-12T14:59:21.533Z,8.23
2018-07-12T15:01:49.656Z,8.27
2018-07-12T15:04:17.756Z,7.80
2018-07-12T15:06:45.877Z,8.23
2018-07-12T15:09:14.083Z,5.30
2018-07-12T15:11:42.103Z,8.80
2018-07-12T15:14:10.257Z,6.90
2018-07-12T15:16:38.398Z,6.40
2018-07-12T15:19:06.516Z,7.23
2018-07-12T15:21:34.637Z,5.80
2018-07-12T15:24:02.752Z,7.43
2018-07-12T15:26:30.884Z,6.53
2018-07-12T15:28:58.969Z,5.87
2018-07-12T15:31:27.140Z,5.23
2018-07-12T15:33:55.196Z,5.80
2018-07-12T15:36:23.349Z,7.73
2018-07-12T15:38:51.440Z,9.50
2018-07-12T15:41:19.536Z,5.80
2018-07-12T15:43:47.656Z,5.43
2018-07-12T15:46:15.780Z,6.30
2018-07-12T15:48:43.888Z,5.73
2018-07-12T15:51:11.989Z,5.40
2018-07-12T15:53:40.096Z,8.70
2018-07-12T15:56:08.185Z,6.20
2018-07-12T15:58:36.288Z,8.53
2018-07-12T16:01:04.372Z,6.77
2018-07-12T16:03:32.480Z,8.10
2018-07-12T16:06:00.705Z,8.03
2018-07-12T16:08:28.813Z,7.90
2018-07-12T16:10:56.923Z,6.80
2018-07-12T16:13:25.105Z,10.37
2018-07-12T16:15:53.156Z,7.83
2018-07-12T16:18:21.256Z,5.40
2018-07-12T16:20:49.364Z,5.10
2018-07-12T16:23:17.480Z,7.70
2018-07-12T16:25:45.568Z,7.90
2018-07-12T16:28:13.678Z,6.23
2018-07-12T16:30:41.784Z,7.20
2018-07-12T16:33:09.936Z,8.90
2018-07-12T16:35:38.076Z,5.73
2018-07-12T16:38:06.172Z,5.93
2018-07-12T16:40:34.306Z,6.43
2018-07-12T16:43:02.413Z,5.77
2018-07-12T16:45:30.529Z,5.23
2018-07-12T16:47:58.632Z,4.50
2018-07-12T16:50:26.757Z,8.50
2018-07-12T16:52:54.853Z,6.43
2018-07-12T16:55:22.964Z,5.13
2018-07-12T16:57:51.081Z,6.77
2018-07-12T17:00:19.573Z,4.50
2018-07-12T17:02:48.441Z,4.93
2018-07-12T17:05:27.845Z,6.83
2018-07-12T17:07:59.228Z,4.40
2018-07-12T17:10:27.524Z,6.20
2018-07-12T17:12:55.662Z,4.90
2018-07-12T17:15:24.750Z,4.47
2018-07-12T17:20:33.393Z,3.80
2018-07-12T17:23:01.476Z,4.33
2018-07-12T17:25:29.624Z,6.27
2018-07-12T17:27:57.748Z,6.27
2018-07-12T17:30:25.864Z,4.63
2018-07-12T17:32:53.965Z,4.13
2018-07-12T17:35:22.101Z,3.77
2018-07-12T17:37:50.229Z,8.03
2018-07-12T17:40:18.324Z,3.67
2018-07-12T17:42:46.445Z,4.57
2018-07-12T17:45:14.649Z,4.80
2018-07-12T17:47:42.948Z,7.03
2018-07-12T17:50:10.944Z,6.93
2018-07-12T17:52:39.131Z,4.33
2018-07-12T17:55:07.232Z,6.13
2018-07-12T17:57:35.356Z,5.60
2018-07-12T18:00:03.569Z,8.50
2018-07-12T18:02:31.711Z,7.90
2018-07-12T18:04:59.896Z,6.07
2018-07-12T18:07:27.985Z,3.80
2018-07-12T18:09:56.184Z,8.20
2018-07-12T18:12:24.304Z,4.27
2018-07-12T18:14:52.432Z,4.83
2018-07-12T18:17:20.571Z,7.53
2018-07-12T18:19:48.676Z,6.13
2018-07-12T18:22:16.821Z,5.37
2018-07-12T18:24:44.917Z,5.20
2018-07-12T18:27:13.024Z,5.27
2018-07-12T18:29:41.139Z,6.33
2018-07-12T18:32:09.480Z,4.23
2018-07-12T18:34:37.637Z,4.30
2018-07-12T18:37:05.741Z,5.10
2018-07-12T18:39:33.852Z,7.67
2018-07-12T18:42:02.013Z,7.60
2018-07-12T18:44:30.148Z,7.50
2018-07-12T18:46:58.291Z,7.43
2018-07-12T18:49:26.424Z,5.30
2018-07-12T18:51:54.524Z,6.73
2018-07-12T18:54:22.653Z,6.40
2018-07-12T18:56:50.760Z,3.97
2018-07-12T18:59:18.927Z,8.03
2018-07-12T19:01:47.053Z,4.63
2018-07-12T19:04:15.152Z,4.67
2018-07-12T19:06:43.300Z,6.13
2018-07-12T19:09:11.416Z,6.37
2018-07-12T19:11:39.577Z,6.20
2018-07-12T19:14:07.700Z,4.93
2018-07-12T19:16:35.830Z,7.60
2018-07-12T19:19:04.033Z,4.63
2018-07-12T19:21:32.161Z,4.93
2018-07-12T19:24:00.281Z,6.30
2018-07-12T19:26:28.492Z,7.43
2018-07-12T19:28:56.642Z,11.47
2018-07-12T19:31:24.864Z,4.97
2018-07-12T19:33:52.964Z,7.73
2018-07-12T19:36:21.124Z,4.83
2018-07-12T19:38:49.285Z,8.20
2018-07-12T19:41:17.451Z,9.40
2018-07-12T19:43:45.560Z,4.80
2018-07-12T19:46:13.709Z,6.30
2018-07-12T19:48:41.852Z,6.20
2018-07-12T19:51:09.989Z,4.43
2018-07-12T19:53:38.092Z,7.40
2018-07-12T19:56:06.301Z,8.73
2018-07-12T19:58:34.684Z,8.60
2018-07-12T20:01:02.822Z,7.33
2018-07-12T20:03:30.990Z,8.03
2018-07-12T20:05:59.117Z,7.80
2018-07-12T20:08:27.266Z,5.93
2018-07-12T20:10:55.434Z,5.27
2018-07-12T20:13:23.596Z,4.83
2018-07-12T20:15:51.793Z,7.03
2018-07-12T20:18:20.084Z,6.50
2018-07-12T20:20:48.332Z,4.87
2018-07-12T20:23:16.470Z,6.67
2018-07-12T20:25:44.657Z,6.77
2018-07-12T20:28:12.780Z,7.20
2018-07-12T20:30:41.148Z,5.37
2018-07-12T20:33:09.309Z,5.73
2018-07-12T20:35:37.420Z,5.40
2018-07-12T20:38:05.553Z,6.10
2018-07-12T20:40:33.676Z,5.47
2018-07-12T20:43:01.828Z,9.23
2018-07-12T20:45:30.033Z,5.80
2018-07-12T20:47:58.307Z,5.67
2018-07-12T20:50:26.417Z,5.30
2018-07-12T20:52:54.540Z,4.90
2018-07-12T20:55:22.663Z,6.30
2018-07-12T20:57:50.797Z,5.27
2018-07-12T21:00:18.924Z,6.00
2018-07-12T21:02:47.024Z,6.90
2018-07-12T21:05:15.151Z,10.10
2018-07-12T21:07:43.316Z,5.80
2018-07-12T21:10:11.436Z,6.40
2018-07-12T21:12:39.540Z,7.60
2018-07-12T21:15:07.684Z,4.83
2018-07-12T21:17:35.932Z,6.23
2018-07-12T21:20:04.701Z,5.53
2018-07-12T21:22:32.798Z,9.70
2018-07-12T21:25:00.916Z,6.60
2018-07-12T21:27:29.032Z,5.03
2018-07-12T21:29:57.181Z,4.73
2018-07-12T21:32:25.289Z,5.13
2018-07-12T21:34:53.416Z,5.60
2018-07-12T21:37:21.528Z,6.67
2018-07-12T21:39:49.720Z,9.57
2018-07-12T21:42:18.044Z,7.43
2018-07-12T21:44:46.160Z,6.33
2018-07-12T21:47:14.285Z,5.73
2018-07-12T21:49:42.390Z,6.60
2018-07-12T21:52:10.633Z,6.73
2018-07-12T21:54:38.783Z,5.63
2018-07-12T21:57:06.913Z,6.13
2018-07-12T21:59:35.020Z,6.53
2018-07-12T22:02:03.203Z,5.90
2018-07-12T22:04:31.313Z,6.57
2018-07-12T22:07:05.056Z,5.80
2018-07-12T22:09:33.181Z,6.13
2018-07-12T22:12:01.325Z,6.10
2018-07-12T22:14:29.667Z,8.00
2018-07-12T22:16:57.873Z,6.63
2018-07-12T22:19:25.976Z,6.23
2018-07-12T22:21:54.116Z,5.10
2018-07-12T22:24:22.209Z,5.17
2018-07-12T22:26:50.976Z,6.20
2018-07-12T22:29:19.081Z,6.17
2018-07-12T22:31:47.215Z,5.43
2018-07-12T22:34:15.313Z,6.43
2018-07-12T22:36:43.656Z,9.60
2018-07-12T22:39:11.888Z,6.50
2018-07-12T22:41:40.054Z,6.80
2018-07-12T22:44:08.127Z,6.57
2018-07-12T22:46:36.230Z,6.23
2018-07-12T22:49:04.555Z,6.43
2018-07-12T22:51:32.600Z,5.40
2018-07-12T22:54:00.708Z,7.80
2018-07-12T22:56:28.806Z,6.20
2018-07-12T22:58:56.944Z,6.93
2018-07-12T23:01:25.045Z,5.50
2018-07-12T23:03:53.156Z,7.27
2018-07-12T23:06:21.313Z,5.93
2018-07-12T23:08:49.432Z,5.37
2018-07-12T23:11:17.897Z,5.50
2018-07-12T23:13:46.012Z,8.87
2018-07-12T23:16:14.100Z,6.57
2018-07-12T23:18:42.231Z,6.83
2018-07-12T23:21:10.329Z,7.90
2018-07-12T23:23:38.548Z,7.53
2018-07-12T23:26:06.776Z,6.67
2018-07-12T23:28:34.928Z,7.90
2018-07-12T23:31:03.082Z,6.37
2018-07-12T23:33:31.180Z,7.50
2018-07-12T23:35:59.300Z,9.33
2018-07-12T23:38:27.392Z,6.70
2018-07-12T23:40:55.505Z,9.43
2018-07-12T23:43:23.683Z,6.40
2018-07-12T23:45:52.126Z,6.87
2018-07-12T23:48:20.258Z,6.87
2018-07-12T23:50:48.509Z,11.23
2018-07-12T23:53:16.607Z,8.97
2018-07-12T23:55:44.772Z,10.40
2018-07-12T23:58:12.879Z,6.47
